Time;durP1;ratioP1;P1;durP2;ratioP2;P2;SDS_P1;SDS_P2;PMS_P1;PMS_P2;Temp;Humidity;BMP_temperature;BMP_pressure;BME280_temperature;BME280_humidity;BME280_pressure;Samples;Min_cycle;Max_cycle;Signal;HPM_P1;HPM_P2
2022/10/25 00:00:12;;;;;;;0.50;0.40;;;11.70;99.90;13.30;97058.00;;;;4971528;28;20713;-64
2022/10/25 00:03:01;;;;;;;1.10;0.60;;;11.70;99.90;13.30;97061.00;;;;4972024;28;20290;-63
2022/10/25 00:05:51;;;;;;;1.93;0.40;;;11.80;99.90;13.20;97063.00;;;;4969970;28;20782;-63
2022/10/25 00:08:40;;;;;;;0.67;0.40;;;11.80;99.90;13.30;97050.00;;;;4964856;28;20253;-63
2022/10/25 00:11:30;;;;;;;0.77;0.60;;;11.80;99.90;12.90;97052.00;;;;4971386;28;20252;-64
2022/10/25 00:14:19;;;;;;;1.17;0.90;;;11.80;99.90;13.00;97049.00;;;;4971789;28;20623;-64
2022/10/25 00:17:08;;;;;;;3.43;0.90;;;11.70;99.90;13.00;97053.00;;;;4971901;28;20211;-63
2022/10/25 00:19:56;;;;;;;3.20;0.70;;;11.70;99.90;13.00;97048.00;;;;4971294;28;20255;-64
2022/10/25 00:22:46;;;;;;;2.10;0.77;;;11.70;99.90;13.10;97031.00;;;;4972244;28;20723;-63
2022/10/25 00:25:35;;;;;;;1.20;0.53;;;11.70;99.90;13.00;97029.00;;;;4972416;28;20268;-63
2022/10/25 00:28:24;;;;;;;0.40;0.40;;;11.70;99.90;12.60;97031.00;;;;4972167;28;20686;-64
2022/10/25 00:31:15;;;;;;;1.57;0.60;;;11.70;99.90;12.70;97037.00;;;;4969188;28;20235;-64
2022/10/25 00:34:04;;;;;;;1.57;0.57;;;11.60;99.90;12.80;97042.00;;;;4966931;28;20708;-62
2022/10/25 00:36:52;;;;;;;0.40;0.40;;;11.60;99.90;12.70;97046.00;;;;4970820;28;20211;-64
2022/10/25 00:39:43;;;;;;;2.50;0.70;;;11.60;99.90;12.60;97051.00;;;;4966820;28;20223;-64
2022/10/25 00:42:31;;;;;;;3.90;0.83;;;11.50;99.90;12.40;97044.00;;;;4971362;28;20727;-63
2022/10/25 00:45:23;;;;;;;3.50;0.60;;;11.50;99.90;12.40;97048.00;;;;4965517;28;20295;-62
2022/10/25 00:48:12;;;;;;;1.90;0.83;;;11.40;99.90;12.60;97056.00;;;;4970935;28;20863;-64
2022/10/25 00:51:02;;;;;;;2.80;0.53;;;11.40;99.90;12.80;97047.00;;;;4970972;28;20278;-64
2022/10/25 00:53:51;;;;;;;5.50;0.70;;;11.40;99.90;12.90;97042.00;;;;4966738;28;20258;-63
2022/10/25 00:56:46;;;;;;;3.43;0.77;;;11.40;99.90;12.90;97047.00;;;;4972351;28;20239;-63
2022/10/25 00:59:42;;;;;;;0.67;0.50;;;11.40;99.90;12.90;97052.00;;;;4968913;28;20317;-63
2022/10/25 01:02:31;;;;;;;1.67;1.00;;;11.50;99.90;12.80;97054.00;;;;4971296;28;20622;-65
2022/10/25 01:05:20;;;;;;;0.60;0.60;;;11.50;99.90;12.90;97047.00;;;;4970882;28;20207;-65
2022/10/25 01:08:10;;;;;;;0.63;0.60;;;11.50;99.90;13.00;97042.00;;;;4967994;28;20204;-65
2022/10/25 01:10:58;;;;;;;5.80;0.90;;;11.50;99.90;13.10;97051.00;;;;4970537;28;20223;-65
2022/10/25 01:13:49;;;;;;;0.50;0.50;;;11.60;99.90;13.10;97043.00;;;;4971700;28;20266;-65
2022/10/25 01:16:49;;;;;;;0.50;0.50;;;11.60;99.90;13.00;97048.00;;;;4970988;28;20575;-65
2022/10/25 01:20:04;;;;;;;1.00;0.90;;;11.60;99.90;13.10;97054.00;;;;4962913;28;20211;-65
2022/10/25 01:23:02;;;;;;;0.93;0.83;;;11.60;99.90;13.20;97050.00;;;;4970432;28;20207;-65
2022/10/25 01:26:23;;;;;;;1.10;0.50;;;11.60;99.90;13.00;97053.00;;;;4958262;28;20655;-65
2022/10/25 01:29:37;;;;;;;0.60;0.60;;;11.60;99.90;12.80;97049.00;;;;4959398;28;20231;-65
2022/10/25 01:32:34;;;;;;;1.07;0.70;;;11.60;99.90;13.10;97060.00;;;;4976235;28;20250;-65
2022/10/25 01:35:29;;;;;;;5.40;1.10;;;11.60;99.90;13.20;97050.00;;;;4970024;28;20231;-65
2022/10/25 01:38:31;;;;;;;1.40;0.80;;;11.60;99.90;13.20;97053.00;;;;4970727;28;20707;-65
2022/10/25 01:41:26;;;;;;;4.67;1.00;;;11.70;99.90;13.10;97051.00;;;;4970750;28;20270;-65
2022/10/25 01:44:31;;;;;;;4.47;0.90;;;11.70;99.90;12.80;97037.00;;;;4971286;28;20620;-65
2022/10/25 01:47:26;;;;;;;0.77;0.77;;;11.60;99.90;12.90;97046.00;;;;4967650;28;20218;-65
2022/10/25 01:50:21;;;;;;;0.50;0.50;;;11.60;99.90;13.10;97054.00;;;;4961142;28;20230;-65
2022/10/25 01:53:11;;;;;;;0.50;0.50;;;11.60;99.90;13.10;97059.00;;;;4970438;28;20210;-65
2022/10/25 01:56:03;;;;;;;4.60;0.80;;;11.60;99.90;13.20;97042.00;;;;4974083;28;20246;-65
2022/10/25 01:59:27;;;;;;;0.50;0.40;;;11.70;99.90;13.10;97031.00;;;;4974655;28;20203;-65
2022/10/25 02:02:24;;;;;;;1.20;0.80;;;11.60;99.90;13.20;97040.00;;;;4970902;28;20207;-65
2022/10/25 02:05:22;;;;;;;1.07;0.60;;;11.70;99.90;13.30;97035.00;;;;4964887;28;20207;-65
2022/10/25 02:08:20;;;;;;;3.50;1.10;;;11.70;99.90;13.20;97038.00;;;;4970562;28;20295;-66
2022/10/25 02:11:18;;;;;;;0.60;0.60;;;11.80;99.90;13.30;97046.00;;;;4974342;28;20366;-65
2022/10/25 02:14:16;;;;;;;0.70;0.60;;;11.80;99.90;13.30;97046.00;;;;4974182;28;20566;-65
2022/10/25 02:17:09;;;;;;;3.53;0.80;;;11.80;99.90;13.30;97049.00;;;;4969813;28;20207;-65
2022/10/25 02:20:00;;;;;;;1.33;0.77;;;11.80;99.90;13.40;97042.00;;;;4972849;28;20246;-65
2022/10/25 02:22:53;;;;;;;0.70;0.67;;;11.80;99.90;13.20;97047.00;;;;4968850;28;20231;-65
2022/10/25 02:25:43;;;;;;;0.50;0.50;;;11.80;99.90;13.30;97055.00;;;;4974635;28;20254;-65
2022/10/25 02:28:37;;;;;;;5.63;0.87;;;11.80;99.90;13.30;97048.00;;;;4973722;28;20211;-65
2022/10/25 02:31:27;;;;;;;0.77;0.77;;;11.80;99.90;13.30;97046.00;;;;4974307;28;20290;-65
2022/10/25 02:34:16;;;;;;;1.73;0.60;;;11.90;99.90;13.10;97044.00;;;;4983167;28;20218;-65
2022/10/25 02:37:04;;;;;;;1.90;0.53;;;11.80;99.90;13.20;97046.00;;;;4970577;28;20269;-65
2022/10/25 02:39:55;;;;;;;0.70;0.70;;;11.80;99.90;13.30;97051.00;;;;4973571;28;20223;-65
2022/10/25 02:42:43;;;;;;;3.43;0.50;;;11.80;99.90;13.30;97048.00;;;;4974030;28;20676;-65
2022/10/25 02:45:32;;;;;;;0.80;0.73;;;11.80;99.90;13.30;97047.00;;;;4973402;28;20675;-65
2022/10/25 02:48:21;;;;;;;1.10;0.77;;;11.80;99.90;13.20;97050.00;;;;4969552;28;20211;-65
2022/10/25 02:51:11;;;;;;;1.13;0.90;;;11.80;99.90;13.30;97049.00;;;;4972546;28;20228;-65
2022/10/25 02:54:01;;;;;;;0.97;0.60;;;11.80;99.90;13.40;97049.00;;;;4973914;28;20238;-65
2022/10/25 02:56:51;;;;;;;2.40;1.00;;;11.80;99.90;13.40;97062.00;;;;4973443;28;20620;-65
2022/10/25 02:59:40;;;;;;;0.73;0.73;;;11.90;99.90;13.30;97055.00;;;;4973502;28;20254;-65
2022/10/25 03:02:29;;;;;;;1.70;1.57;;;11.80;99.90;13.30;97048.00;;;;4973514;28;20289;-65
2022/10/25 03:05:17;;;;;;;4.50;0.87;;;11.80;99.90;13.40;97045.00;;;;4972966;28;20853;-65
2022/10/25 03:08:06;;;;;;;0.70;0.70;;;11.80;99.90;13.40;97041.00;;;;4968789;28;20239;-66
2022/10/25 03:10:56;;;;;;;2.20;0.73;;;11.90;99.90;13.00;97042.00;;;;4967358;28;20326;-65
2022/10/25 03:13:46;;;;;;;0.70;0.70;;;11.80;99.90;13.10;97058.00;;;;4969507;28;20220;-65
2022/10/25 03:16:34;;;;;;;1.00;0.77;;;11.80;99.90;13.00;97053.00;;;;4972423;28;20251;-65
2022/10/25 03:19:23;;;;;;;3.47;0.60;;;11.70;99.90;13.10;97049.00;;;;4970657;28;20557;-65
2022/10/25 03:22:12;;;;;;;1.07;0.80;;;11.70;99.90;13.10;97053.00;;;;4972695;28;20754;-65
2022/10/25 03:25:00;;;;;;;1.53;0.83;;;11.70;99.90;13.00;97065.00;;;;4973185;28;20216;-65
2022/10/25 03:27:49;;;;;;;1.17;0.90;;;11.70;99.90;13.00;97063.00;;;;4972938;28;20199;-65
2022/10/25 03:30:43;;;;;;;0.80;0.53;;;11.70;99.90;12.80;97061.00;;;;4971968;28;20602;-65
2022/10/25 03:33:31;;;;;;;0.77;0.77;;;11.70;99.90;13.00;97062.00;;;;4986426;28;20238;-65
2022/10/25 03:36:20;;;;;;;0.97;0.80;;;11.70;99.90;13.20;97064.00;;;;4967716;28;20223;-65
2022/10/25 03:39:10;;;;;;;1.67;1.57;;;11.70;99.90;13.20;97049.00;;;;4974445;28;20199;-65
2022/10/25 03:41:58;;;;;;;1.30;0.90;;;11.70;99.90;13.20;97058.00;;;;4977693;28;20199;-65
2022/10/25 03:44:48;;;;;;;2.10;1.10;;;11.70;99.90;13.20;97068.00;;;;4974367;28;20683;-65
2022/10/25 03:47:38;;;;;;;7.43;1.27;;;11.70;99.90;13.10;97069.00;;;;4971447;28;20242;-65
2022/10/25 03:50:27;;;;;;;3.60;1.00;;;11.70;99.90;13.20;97060.00;;;;4972045;28;20851;-65
2022/10/25 03:53:16;;;;;;;1.23;0.60;;;11.70;99.90;13.10;97067.00;;;;4972544;28;20301;-65
2022/10/25 03:56:05;;;;;;;1.17;0.80;;;11.70;99.90;12.90;97071.00;;;;4973186;28;20683;-65
2022/10/25 03:58:54;;;;;;;3.37;1.20;;;11.70;99.90;12.80;97061.00;;;;4972523;28;20252;-65
2022/10/25 04:01:42;;;;;;;1.00;0.90;;;11.60;99.90;12.60;97063.00;;;;4972045;28;20307;-65
2022/10/25 04:04:32;;;;;;;2.73;0.90;;;11.60;99.90;13.00;97067.00;;;;4967758;28;20550;-65
2022/10/25 04:07:21;;;;;;;3.60;1.17;;;11.60;99.90;12.90;97069.00;;;;4969457;28;20290;-65
2022/10/25 04:10:10;;;;;;;2.47;0.70;;;11.60;99.90;12.60;97079.00;;;;4968656;28;20258;-66
2022/10/25 04:12:58;;;;;;;7.97;1.20;;;11.60;99.90;12.80;97080.00;;;;4967978;28;20211;-65
2022/10/25 04:15:47;;;;;;;1.53;0.70;;;11.60;99.90;12.70;97091.00;;;;4969774;28;20223;-65
2022/10/25 04:18:36;;;;;;;2.00;0.80;;;11.50;99.90;12.90;97091.00;;;;4969360;28;20274;-65
2022/10/25 04:21:27;;;;;;;1.17;0.80;;;11.50;99.90;13.10;97093.00;;;;4963074;28;20223;-64
2022/10/25 04:24:15;;;;;;;0.87;0.87;;;11.60;99.90;13.20;97100.00;;;;4966689;28;20199;-65
2022/10/25 04:27:04;;;;;;;3.57;0.80;;;11.60;99.90;13.10;97088.00;;;;4969307;28;20246;-65
2022/10/25 04:29:53;;;;;;;1.03;0.77;;;11.60;99.90;13.00;97091.00;;;;4966221;28;20262;-65
2022/10/25 04:32:41;;;;;;;1.50;0.90;;;11.60;99.90;13.10;97104.00;;;;4972264;28;20319;-64
2022/10/25 04:35:30;;;;;;;1.77;1.10;;;11.70;99.90;13.20;97099.00;;;;4962278;28;20713;-64
2022/10/25 04:38:20;;;;;;;0.63;0.63;;;11.70;99.90;13.00;97100.00;;;;4970715;28;20235;-65
2022/10/25 04:41:10;;;;;;;0.70;0.70;;;11.70;99.90;12.90;97085.00;;;;4970774;28;20310;-65
2022/10/25 04:43:59;;;;;;;1.10;0.87;;;11.60;99.90;13.00;97090.00;;;;4964815;28;20215;-65
2022/10/25 04:46:47;;;;;;;3.90;1.13;;;11.60;99.90;13.20;97080.00;;;;4971075;28;20207;-65
2022/10/25 04:49:36;;;;;;;1.43;1.10;;;11.60;99.90;13.10;97096.00;;;;4967611;28;20691;-65
2022/10/25 04:52:25;;;;;;;2.63;0.90;;;11.60;99.90;13.00;97086.00;;;;4972194;28;20211;-65
2022/10/25 04:55:15;;;;;;;5.40;1.10;;;11.60;99.90;12.90;97077.00;;;;4966647;28;20207;-65
2022/10/25 04:58:04;;;;;;;0.87;0.77;;;11.60;99.90;13.10;97076.00;;;;4971691;28;20211;-65
2022/10/25 05:00:54;;;;;;;4.63;1.00;;;11.70;99.90;13.10;97065.00;;;;4966439;28;20231;-65
2022/10/25 05:03:43;;;;;;;3.20;1.30;;;11.70;99.90;13.10;97054.00;;;;4969008;28;20196;-65
2022/10/25 05:06:31;;;;;;;1.00;1.00;;;11.70;99.90;13.10;97064.00;;;;4970986;28;20211;-65
2022/10/25 05:09:20;;;;;;;3.73;1.40;;;11.70;99.90;12.80;97065.00;;;;4968062;28;20682;-65
2022/10/25 05:12:10;;;;;;;1.83;0.60;;;11.60;99.90;12.50;97072.00;;;;4970172;28;20260;-65
2022/10/25 05:14:59;;;;;;;1.83;0.90;;;11.50;99.90;12.80;97082.00;;;;4971958;28;20199;-65
2022/10/25 05:17:47;;;;;;;1.37;0.80;;;11.50;99.90;12.70;97075.00;;;;4975707;28;20230;-65
2022/10/25 05:20:36;;;;;;;5.03;0.60;;;11.50;99.90;12.40;97061.00;;;;4970777;28;20211;-65
2022/10/25 05:23:27;;;;;;;0.90;0.80;;;11.40;99.90;12.60;97064.00;;;;4970582;28;20329;-65
2022/10/25 05:26:18;;;;;;;1.60;0.90;;;11.40;99.90;12.80;97068.00;;;;4972784;28;20249;-65
2022/10/25 05:29:12;;;;;;;4.40;1.20;;;11.40;99.90;12.90;97057.00;;;;4978603;28;20385;-65
2022/10/25 05:32:01;;;;;;;2.07;1.10;;;11.40;99.90;12.90;97062.00;;;;4975125;28;20292;-65
2022/10/25 05:34:50;;;;;;;2.33;1.30;;;11.50;99.90;12.80;97072.00;;;;4972946;28;20198;-65
2022/10/25 05:37:39;;;;;;;1.03;0.93;;;11.50;99.90;12.80;97098.00;;;;4957215;28;20759;-65
2022/10/25 05:40:27;;;;;;;1.13;1.03;;;11.50;99.90;12.30;97096.00;;;;4970754;28;20286;-65
2022/10/25 05:43:16;;;;;;;1.97;0.67;;;11.40;99.90;12.50;97087.00;;;;4965970;28;20602;-65
2022/10/25 05:46:08;;;;;;;1.10;0.93;;;11.40;99.90;12.80;97101.00;;;;4969467;28;20282;-65
2022/10/25 05:48:59;;;;;;;0.83;0.70;;;11.40;99.90;12.90;97096.00;;;;4967474;28;20223;-65
2022/10/25 05:51:48;;;;;;;1.10;1.00;;;11.40;99.90;12.90;97094.00;;;;4965443;28;20203;-65
2022/10/25 05:54:37;;;;;;;1.00;0.97;;;11.40;99.90;12.80;97107.00;;;;4970630;28;20195;-65
2022/10/25 05:57:25;;;;;;;1.33;1.20;;;11.40;99.90;12.80;97107.00;;;;4968091;28;20715;-65
2022/10/25 06:00:15;;;;;;;1.40;1.30;;;11.40;99.90;12.80;97115.00;;;;4967810;28;20234;-65
2022/10/25 06:03:05;;;;;;;3.97;0.90;;;11.40;99.90;12.70;97114.00;;;;4966840;28;20219;-65
2022/10/25 06:05:54;;;;;;;0.80;0.73;;;10.40;99.90;12.90;97116.00;;;;4967283;28;20203;-65
2022/10/25 06:08:42;;;;;;;1.00;0.90;;;11.40;99.90;13.00;97126.00;;;;4970210;28;20262;-65
2022/10/25 06:11:32;;;;;;;6.57;2.57;;;11.50;99.90;12.70;97130.00;;;;4959612;28;20215;-65
2022/10/25 06:14:21;;;;;;;2.70;2.27;;;11.40;99.90;12.90;97139.00;;;;4969956;28;20337;-65
2022/10/25 06:17:09;;;;;;;4.20;2.70;;;11.50;99.90;13.00;97135.00;;;;4968550;28;20294;-65
2022/10/25 06:19:59;;;;;;;3.63;2.37;;;11.50;99.90;12.90;97127.00;;;;4964395;28;20632;-65
2022/10/25 06:22:48;;;;;;;5.07;1.17;;;11.50;99.90;12.60;97143.00;;;;4964163;28;20208;-65
2022/10/25 06:25:37;;;;;;;1.80;1.13;;;11.50;99.90;12.60;97143.00;;;;4969174;28;20262;-65
2022/10/25 06:28:25;;;;;;;6.80;1.70;;;11.40;99.90;12.60;97146.00;;;;4969767;28;20250;-65
2022/10/25 06:31:17;;;;;;;1.83;1.20;;;11.40;99.90;12.40;97145.00;;;;4970439;28;20738;-65
2022/10/25 06:34:05;;;;;;;1.40;1.30;;;11.30;99.90;12.70;97143.00;;;;4959223;28;20648;-65
2022/10/25 06:36:55;;;;;;;1.00;1.00;;;11.30;99.90;12.60;97131.00;;;;4965439;28;20943;-65
2022/10/25 06:39:44;;;;;;;1.70;1.30;;;11.30;99.90;12.80;97138.00;;;;4963674;28;20302;-65
2022/10/25 06:42:33;;;;;;;5.10;1.00;;;11.30;99.90;12.60;97140.00;;;;4972271;28;20722;-65
2022/10/25 06:45:21;;;;;;;1.43;0.97;;;11.40;99.90;12.40;97150.00;;;;4970523;28;20952;-65
2022/10/25 06:48:10;;;;;;;5.27;0.90;;;11.30;99.90;12.00;97154.00;;;;4972906;28;20290;-65
2022/10/25 06:51:03;;;;;;;2.73;1.37;;;11.20;99.90;12.20;97155.00;;;;4972671;28;20227;-65
2022/10/25 06:53:56;;;;;;;2.53;1.17;;;11.20;99.90;12.50;97155.00;;;;4972352;28;20296;-65
2022/10/25 06:56:44;;;;;;;1.50;1.40;;;11.20;99.90;12.50;97162.00;;;;4966433;28;20309;-65
2022/10/25 06:59:33;;;;;;;1.33;1.20;;;11.30;99.90;12.60;97164.00;;;;4972388;28;20309;-64
2022/10/25 07:02:22;;;;;;;3.60;1.07;;;11.30;99.90;12.50;97173.00;;;;4973686;28;20235;-63
2022/10/25 07:05:10;;;;;;;1.57;1.47;;;11.30;99.90;12.30;97195.00;;;;4973602;28;20199;-64
2022/10/25 07:07:59;;;;;;;1.30;1.00;;;11.30;99.90;12.60;97187.00;;;;4960034;28;20203;-62
2022/10/25 07:10:54;;;;;;;1.60;1.50;;;11.40;99.90;12.90;97181.00;;;;4971807;28;20377;-63
2022/10/25 07:13:44;;;;;;;1.53;1.40;;;11.40;99.90;12.90;97184.00;;;;4971459;28;20736;-64
2022/10/25 07:16:33;;;;;;;2.30;1.23;;;11.50;99.90;12.70;97180.00;;;;4971937;28;20211;-64
2022/10/25 07:19:23;;;;;;;0.93;0.93;;;11.50;99.90;12.80;97201.00;;;;4968991;28;20279;-63
2022/10/25 07:22:12;;;;;;;3.27;1.20;;;11.50;99.90;13.00;97194.00;;;;4971762;28;20203;-63
2022/10/25 07:25:00;;;;;;;2.83;1.27;;;11.60;99.90;12.80;97187.00;;;;4972306;28;20226;-63
2022/10/25 07:27:50;;;;;;;1.83;1.17;;;11.60;99.90;12.70;97185.00;;;;4970703;28;20210;-64
2022/10/25 07:30:46;;;;;;;2.57;1.00;;;11.60;99.90;12.90;97178.00;;;;4972274;28;20245;-63
2022/10/25 07:33:34;;;;;;;1.20;1.20;;;11.60;99.90;12.90;97170.00;;;;4974457;28;20620;-64
2022/10/25 07:36:23;;;;;;;2.43;1.13;;;11.70;99.90;12.80;97178.00;;;;4967678;28;20196;-63
2022/10/25 07:39:12;;;;;;;1.90;1.47;;;11.60;99.90;12.90;97180.00;;;;4965760;28;20203;-64
2022/10/25 07:42:00;;;;;;;1.47;1.37;;;11.70;99.90;13.00;97182.00;;;;4967390;28;20262;-63
2022/10/25 07:44:50;;;;;;;1.33;1.23;;;11.70;99.90;13.30;97178.00;;;;4969420;28;20208;-64
2022/10/25 07:47:39;;;;;;;1.20;1.10;;;11.70;99.90;13.60;97193.00;;;;4972488;28;20309;-64
2022/10/25 07:50:28;;;;;;;1.00;0.87;;;11.90;99.90;13.60;97181.00;;;;4968398;28;20234;-64
2022/10/25 07:53:17;;;;;;;2.70;1.13;;;12.00;99.90;13.50;97175.00;;;;4970389;28;20203;-63
2022/10/25 07:56:06;;;;;;;2.57;1.43;;;12.00;99.90;13.60;97180.00;;;;4969787;28;20229;-64
2022/10/25 07:58:55;;;;;;;2.17;1.27;;;12.20;99.90;13.40;97175.00;;;;4970977;28;20262;-63
2022/10/25 08:01:45;;;;;;;1.27;1.07;;;12.20;99.90;13.50;97176.00;;;;4970357;28;20207;-65
2022/10/25 08:04:34;;;;;;;3.33;1.57;;;11.40;99.90;13.80;97178.00;;;;4971879;28;20207;-64
2022/10/25 08:07:22;;;;;;;0.80;0.80;;;12.30;99.90;13.70;97185.00;;;;4969895;28;20223;-63
2022/10/25 08:10:11;;;;;;;1.20;1.10;;;12.40;99.90;13.90;97178.00;;;;4967172;28;20309;-64
2022/10/25 08:13:00;;;;;;;1.47;1.30;;;12.50;99.90;14.10;97183.00;;;;4966750;28;20303;-63
2022/10/25 08:15:52;;;;;;;1.43;1.33;;;12.50;99.90;14.30;97175.00;;;;4972352;28;20210;-64
2022/10/25 08:18:43;;;;;;;3.30;1.33;;;12.60;99.90;14.50;97180.00;;;;4965890;28;20239;-64
2022/10/25 08:21:31;;;;;;;2.13;1.40;;;12.70;99.90;14.60;97178.00;;;;4971557;28;20215;-63
2022/10/25 08:24:20;;;;;;;1.33;1.23;;;12.90;99.90;14.70;97169.00;;;;4971134;28;20199;-64
2022/10/25 08:27:09;;;;;;;1.53;1.20;;;13.00;99.90;14.50;97181.00;;;;4971110;28;20870;-63
2022/10/25 08:29:57;;;;;;;3.43;1.83;;;13.00;99.90;14.40;97166.00;;;;4969994;28;20290;-63
2022/10/25 08:32:46;;;;;;;1.13;1.03;;;13.00;99.90;14.50;97160.00;;;;4973038;28;20200;-64
2022/10/25 08:35:36;;;;;;;2.60;0.90;;;13.10;99.90;14.60;97153.00;;;;4964522;28;20849;-64
2022/10/25 08:38:25;;;;;;;2.37;1.13;;;13.10;99.90;14.90;97159.00;;;;4966179;28;20264;-64
2022/10/25 08:41:20;;;;;;;4.77;1.30;;;13.20;99.90;14.70;97165.00;;;;4964243;28;20227;-64
2022/10/25 08:44:25;;;;;;;1.77;1.67;;;13.30;99.90;14.90;97166.00;;;;4971079;28;20203;-64
2022/10/25 08:47:18;;;;;;;1.73;1.10;;;13.40;99.90;15.30;97168.00;;;;4967773;28;20321;-63
2022/10/25 08:50:16;;;;;;;1.13;1.00;;;13.60;99.90;15.20;97165.00;;;;4959089;28;20230;-64
2022/10/25 08:53:14;;;;;;;2.30;1.40;;;13.70;99.90;15.40;97167.00;;;;4968416;28;20282;-63
2022/10/25 08:56:04;;;;;;;1.47;1.30;;;13.80;99.90;15.50;97175.00;;;;4971444;28;20206;-64
2022/10/25 08:59:03;;;;;;;1.10;1.00;;;14.00;99.90;15.80;97166.00;;;;4969843;28;20738;-64
2022/10/25 09:01:57;;;;;;;2.57;1.37;;;14.10;99.90;15.80;97176.00;;;;4970475;28;20434;-64
2022/10/25 09:04:46;;;;;;;1.47;1.33;;;14.20;99.90;15.40;97174.00;;;;4962880;28;20207;-64
2022/10/25 09:08:03;;;;;;;5.30;1.00;;;14.30;99.90;15.20;97186.00;;;;4967250;28;20645;-64
2022/10/25 09:11:01;;;;;;;1.70;1.60;;;14.30;99.90;15.70;97184.00;;;;4965185;28;20234;-64
2022/10/25 09:13:57;;;;;;;1.70;1.60;;;14.30;99.90;15.90;97183.00;;;;4970862;28;20215;-63
2022/10/25 09:16:51;;;;;;;4.20;1.43;;;14.40;99.90;16.30;97178.00;;;;4967113;28;20262;-64
2022/10/25 09:20:02;;;;;;;1.23;1.17;;;14.50;99.90;16.40;97187.00;;;;4966790;28;20649;-63
2022/10/25 09:22:59;;;;;;;1.83;1.50;;;14.70;99.90;16.50;97180.00;;;;4961099;28;20246;-64
2022/10/25 09:26:00;;;;;;;3.10;1.70;;;14.90;99.90;16.70;97177.00;;;;4968835;28;20215;-63
2022/10/25 09:28:54;;;;;;;2.10;1.90;;;15.10;99.90;17.10;97183.00;;;;4970576;28;20260;-63
2022/10/25 09:31:48;;;;;;;7.87;1.80;;;15.20;99.90;17.30;97184.00;;;;4969689;28;20274;-63
2022/10/25 09:34:38;;;;;;;2.77;1.77;;;15.50;99.90;17.60;97191.00;;;;4969825;28;20753;-64
2022/10/25 09:37:32;;;;;;;2.77;2.10;;;15.70;99.90;17.90;97188.00;;;;4967993;28;20199;-63
2022/10/25 09:40:25;;;;;;;2.30;2.00;;;16.00;99.90;18.30;97194.00;;;;4969171;28;20291;-64
2022/10/25 09:43:20;;;;;;;2.43;1.67;;;16.20;99.90;18.40;97190.00;;;;4971204;28;20199;-64
2022/10/25 09:46:16;;;;;;;2.63;1.63;;;16.40;99.90;18.20;97192.00;;;;4968373;28;20247;-64
2022/10/25 09:49:24;;;;;;;7.60;2.47;;;16.60;99.90;18.30;97193.00;;;;4970098;28;20630;-64
2022/10/25 09:52:19;;;;;;;4.23;1.90;;;16.70;99.90;18.50;97192.00;;;;4969049;28;20199;-64
2022/10/25 09:55:35;;;;;;;3.97;1.70;;;16.80;99.90;18.80;97184.00;;;;4970750;28;20254;-64
2022/10/25 09:58:29;;;;;;;2.97;1.50;;;16.90;99.90;18.80;97178.00;;;;4975008;28;20250;-64
2022/10/25 10:01:21;;;;;;;3.30;1.90;;;17.00;99.90;18.80;97179.00;;;;4972563;28;20254;-65
2022/10/25 10:04:25;;;;;;;1.87;1.67;;;17.10;99.90;19.00;97184.00;;;;4974908;28;20607;-63
2022/10/25 10:07:18;;;;;;;1.67;1.57;;;17.20;99.90;19.10;97186.00;;;;4969028;28;20213;-64
2022/10/25 10:10:13;;;;;;;2.83;1.53;;;17.40;99.90;19.40;97181.00;;;;4966448;28;20291;-63
2022/10/25 10:13:06;;;;;;;3.20;1.50;;;17.50;99.90;19.90;97184.00;;;;4963117;28;20210;-64
2022/10/25 10:16:00;;;;;;;3.57;1.40;;;17.70;99.90;20.20;97173.00;;;;4970244;28;20203;-64
2022/10/25 10:18:49;;;;;;;2.13;1.60;;;18.00;99.90;20.40;97175.00;;;;4969441;28;20286;-64
2022/10/25 10:21:42;;;;;;;1.33;1.23;;;18.40;99.90;20.50;97179.00;;;;4970043;28;20808;-64
2022/10/25 10:24:33;;;;;;;2.50;1.50;;;18.90;99.90;19.60;97171.00;;;;4971726;28;20203;-64
2022/10/25 10:27:26;;;;;;;1.47;1.10;;;18.90;99.90;19.90;97164.00;;;;4972604;28;20203;-64
2022/10/25 10:30:25;;;;;;;1.40;1.17;;;18.90;99.90;20.10;97166.00;;;;4973308;28;20219;-65
2022/10/25 10:33:17;;;;;;;1.40;1.30;;;18.90;99.90;20.30;97163.00;;;;4978394;28;20195;-64
2022/10/25 10:36:27;;;;;;;3.30;1.20;;;18.90;99.90;20.60;97169.00;;;;4978806;28;20923;-64
2022/10/25 10:39:21;;;;;;;2.50;1.37;;;19.00;99.90;20.50;97164.00;;;;4974432;28;20302;-66
2022/10/25 10:42:16;;;;;;;0.93;0.83;;;19.20;99.90;20.90;97163.00;;;;4972624;28;20196;-65
2022/10/25 10:45:18;;;;;;;7.80;1.27;;;19.30;99.90;20.80;97161.00;;;;4973847;28;20212;-65
2022/10/25 10:48:20;;;;;;;5.53;1.13;;;19.40;99.90;21.50;97159.00;;;;4970766;28;20254;-64
2022/10/25 10:51:10;;;;;;;1.93;0.73;;;19.60;99.90;21.60;97153.00;;;;4971970;28;20648;-65
2022/10/25 10:54:28;;;;;;;0.77;0.73;;;19.90;99.90;21.70;97162.00;;;;4973375;28;20204;-65
2022/10/25 10:57:27;;;;;;;1.40;1.30;;;20.10;99.90;22.10;97150.00;;;;4961817;28;20199;-65
2022/10/25 11:00:23;;;;;;;1.47;0.80;;;20.20;99.90;21.90;97128.00;;;;4963546;28;20238;-65
2022/10/25 11:03:36;;;;;;;4.63;1.37;;;20.40;99.90;22.90;97148.00;;;;4969772;28;20211;-65
2022/10/25 11:06:27;;;;;;;0.63;0.60;;;20.80;99.90;23.50;97144.00;;;;4972918;28;20215;-64
2022/10/25 11:09:23;;;;;;;2.77;1.47;;;21.20;99.90;23.70;97146.00;;;;4972238;28;20241;-65
2022/10/25 11:12:14;;;;;;;1.50;0.83;;;21.70;99.90;23.80;97149.00;;;;4962606;28;20195;-65
2022/10/25 11:15:10;;;;;;;2.57;0.93;;;22.10;99.90;24.50;97140.00;;;;4972252;28;20256;-65
2022/10/25 11:18:03;;;;;;;2.97;0.87;;;23.20;99.90;24.60;97137.00;;;;4971692;28;20673;-64
2022/10/25 11:20:59;;;;;;;1.27;0.80;;;22.90;99.90;24.90;97141.00;;;;4964311;28;20234;-64
2022/10/25 11:24:06;;;;;;;1.00;0.60;;;23.20;99.90;24.30;97138.00;;;;4971184;28;20370;-65
2022/10/25 11:27:05;;;;;;;1.33;1.23;;;23.30;99.90;24.90;97135.00;;;;4970309;28;20859;-65
2022/10/25 11:30:10;;;;;;;1.43;0.93;;;23.40;99.90;25.20;97133.00;;;;4977479;28;20739;-65
2022/10/25 11:33:28;;;;;;;1.53;1.10;;;23.50;99.90;25.20;97132.00;;;;4975987;28;20216;-66
2022/10/25 11:36:45;;;;;;;1.60;0.83;;;23.70;99.90;26.30;97130.00;;;;4980569;28;20212;-65
2022/10/25 11:39:43;;;;;;;;;;;24.10;98.70;26.10;97132.00;;;;4975659;28;20047;-66
2022/10/25 11:42:55;;;;;;;;;;;24.40;97.70;26.80;97120.00;;;;4979771;28;20393;-66
2022/10/25 11:45:45;;;;;;;;;;;24.80;97.50;27.50;97126.00;;;;4978395;28;20016;-66
2022/10/25 11:48:52;;;;;;;;;;;25.30;93.70;28.10;97118.00;;;;4964933;28;20425;-66
2022/10/25 11:51:48;;;;;;;;;;;25.70;91.80;28.30;97112.00;;;;4970132;28;19949;-66
2022/10/25 11:54:41;;;;;;;;;;;26.10;90.90;26.90;97109.00;;;;4969419;28;19926;-66
2022/10/25 11:57:37;;;;;;;;;;;26.10;90.10;28.60;97117.00;;;;4968058;28;19930;-66
2022/10/25 12:00:33;;;;;;;;;;;26.30;86.60;26.30;97168.00;;;;4973078;28;19922;-67
2022/10/25 12:03:34;;;;;;;;;;;26.10;83.10;24.60;97160.00;;;;4981381;28;19957;-66
2022/10/25 12:06:25;;;;;;;;;;;25.10;91.10;24.70;97144.00;;;;4974450;28;19929;-66
2022/10/25 12:09:22;;;;;;;;;;;24.30;94.70;25.00;97102.00;;;;4973709;28;20572;-66
2022/10/25 12:12:13;;;;;;;;;;;23.90;95.00;26.10;97101.00;;;;4960260;28;19922;-66
2022/10/25 12:15:03;;;;;;;;;;;24.10;96.40;26.80;97097.00;;;;4964043;28;20011;-66
2022/10/25 12:17:52;;;;;;;;;;;24.70;95.10;26.50;97112.00;;;;4966722;28;19929;-67
2022/10/25 12:20:41;;;;;;;;;;;25.10;92.90;26.60;97109.00;;;;4965531;28;19976;-67
2022/10/25 12:23:34;;;;;;;;;;;25.40;92.00;27.70;97111.00;;;;4965199;28;20600;-67
2022/10/25 12:26:28;;;;;;;;;;;25.70;91.40;28.90;97107.00;;;;4965948;28;19964;-66
2022/10/25 12:29:19;;;;;;;;;;;26.30;91.70;29.90;97099.00;;;;4968799;28;19922;-66
2022/10/25 12:32:14;;;;;;;;;;;26.90;90.20;30.40;97094.00;;;;4966703;28;20319;-66
2022/10/25 12:35:14;;;;;;;0.80;0.50;;;27.50;85.90;30.90;97091.00;;;;4969734;28;20424;-67
2022/10/25 12:38:11;;;;;;;2.53;0.70;;;28.10;81.40;30.80;97088.00;;;;4965931;28;20211;-67
2022/10/25 12:41:07;;;;;;;1.63;0.63;;;28.60;77.00;31.50;97097.00;;;;4970794;28;20263;-68
2022/10/25 12:44:17;;;;;;;1.13;0.80;;;28.80;78.10;31.70;97091.00;;;;4971459;28;20297;-67
2022/10/25 12:47:33;;;;;;;3.30;0.65;;;29.10;77.30;31.90;97097.00;;;;4965386;28;20261;-67
2022/10/25 12:51:07;;;;;;;0.82;0.73;;;29.50;75.70;30.70;97103.00;;;;4968976;28;20231;-65
2022/10/25 12:54:47;;;;;;;1.48;0.60;;;29.70;70.80;31.40;97098.00;;;;4969129;28;20249;-65